Ninde, Virginia
Current Conditions -  °F | °C
As of 1:56 AM on Saturday 29 Nov 2014 (Local Time) from KNYG Reporting Station
Overcast Overcast  
Wind Chill: 24°   Ceiling: 11000
Heat Index: 30°   Visibility: 10mi
Dew Point: 24°   Wind: 6mph
Humidity: 79%   Direction: 310°NW
Pressure: 30.34"   Gusts: NA
Location:  38.27°N, 77.06°W
Report Text: KNYG 290656Z AUTO 31005KT 10SM OVC110 M01/M04 A3034 RMK AO2 SLP274 T10111044 FZRANO $
Loading
Personal Weather Stations






























Interactive Weather Map New forecast layout! Learn more

10-Day Weather Forecast

Advertisements
Track Severe Weather on mobile